sensor_id;sensor_type;location;lat;lon;timestamp;P1;durP1;ratioP1;P2;durP2;ratioP2
7375;SDS011;3728;42.266;24.944;2024-02-04T00:02:16;8.27;;;5.60;;
7375;SDS011;3728;42.266;24.944;2024-02-04T00:04:45;11.20;;;5.93;;
7375;SDS011;3728;42.266;24.944;2024-02-04T00:07:13;7.60;;;4.87;;
7375;SDS011;3728;42.266;24.944;2024-02-04T00:09:40;10.70;;;5.63;;
7375;SDS011;3728;42.266;24.944;2024-02-04T00:12:10;10.57;;;5.17;;
7375;SDS011;3728;42.266;24.944;2024-02-04T00:14:38;10.60;;;6.33;;
7375;SDS011;3728;42.266;24.944;2024-02-04T00:17:05;7.93;;;5.30;;
7375;SDS011;3728;42.266;24.944;2024-02-04T00:19:33;10.80;;;5.40;;
7375;SDS011;3728;42.266;24.944;2024-02-04T00:22:01;11.37;;;5.90;;
7375;SDS011;3728;42.266;24.944;2024-02-04T00:24:29;8.00;;;5.20;;
7375;SDS011;3728;42.266;24.944;2024-02-04T00:26:56;9.77;;;6.00;;
7375;SDS011;3728;42.266;24.944;2024-02-04T00:29:24;12.53;;;6.40;;
7375;SDS011;3728;42.266;24.944;2024-02-04T00:31:51;7.77;;;5.53;;
7375;SDS011;3728;42.266;24.944;2024-02-04T00:34:18;7.50;;;4.77;;
7375;SDS011;3728;42.266;24.944;2024-02-04T00:36:46;7.57;;;4.90;;
7375;SDS011;3728;42.266;24.944;2024-02-04T00:39:14;8.20;;;5.33;;
7375;SDS011;3728;42.266;24.944;2024-02-04T00:41:41;7.03;;;5.00;;
7375;SDS011;3728;42.266;24.944;2024-02-04T00:44:08;7.90;;;5.00;;
7375;SDS011;3728;42.266;24.944;2024-02-04T00:46:36;6.70;;;4.73;;
7375;SDS011;3728;42.266;24.944;2024-02-04T00:49:04;4.97;;;4.10;;
7375;SDS011;3728;42.266;24.944;2024-02-04T00:51:31;5.40;;;4.50;;
7375;SDS011;3728;42.266;24.944;2024-02-04T00:53:59;6.70;;;4.20;;
7375;SDS011;3728;42.266;24.944;2024-02-04T00:56:27;5.67;;;4.00;;
7375;SDS011;3728;42.266;24.944;2024-02-04T00:58:54;5.70;;;4.50;;
7375;SDS011;3728;42.266;24.944;2024-02-04T01:01:21;7.80;;;4.97;;
7375;SDS011;3728;42.266;24.944;2024-02-04T01:03:49;8.53;;;5.00;;
7375;SDS011;3728;42.266;24.944;2024-02-04T01:06:17;7.07;;;4.80;;
7375;SDS011;3728;42.266;24.944;2024-02-04T01:08:44;6.90;;;4.57;;
7375;SDS011;3728;42.266;24.944;2024-02-04T01:11:12;9.47;;;5.00;;
7375;SDS011;3728;42.266;24.944;2024-02-04T01:13:39;9.97;;;4.80;;
7375;SDS011;3728;42.266;24.944;2024-02-04T01:16:06;7.23;;;4.17;;
7375;SDS011;3728;42.266;24.944;2024-02-04T01:18:34;5.57;;;3.83;;
7375;SDS011;3728;42.266;24.944;2024-02-04T01:21:02;8.57;;;4.37;;
7375;SDS011;3728;42.266;24.944;2024-02-04T01:23:29;7.63;;;4.60;;
7375;SDS011;3728;42.266;24.944;2024-02-04T01:25:56;6.00;;;4.53;;
7375;SDS011;3728;42.266;24.944;2024-02-04T01:28:24;5.53;;;4.63;;
7375;SDS011;3728;42.266;24.944;2024-02-04T01:30:51;7.33;;;5.53;;
7375;SDS011;3728;42.266;24.944;2024-02-04T01:33:19;4.53;;;4.07;;
7375;SDS011;3728;42.266;24.944;2024-02-04T01:35:46;5.47;;;3.90;;
7375;SDS011;3728;42.266;24.944;2024-02-04T01:38:14;8.60;;;3.90;;
7375;SDS011;3728;42.266;24.944;2024-02-04T01:40:41;5.60;;;4.50;;
7375;SDS011;3728;42.266;24.944;2024-02-04T01:43:09;6.53;;;4.60;;
7375;SDS011;3728;42.266;24.944;2024-02-04T01:45:36;6.80;;;4.50;;
7375;SDS011;3728;42.266;24.944;2024-02-04T01:48:04;4.57;;;3.90;;
7375;SDS011;3728;42.266;24.944;2024-02-04T01:50:32;6.03;;;4.00;;
7375;SDS011;3728;42.266;24.944;2024-02-04T01:53:00;6.73;;;4.20;;
7375;SDS011;3728;42.266;24.944;2024-02-04T01:55:27;5.70;;;4.47;;
7375;SDS011;3728;42.266;24.944;2024-02-04T01:57:55;6.23;;;4.23;;
7375;SDS011;3728;42.266;24.944;2024-02-04T02:00:23;4.47;;;3.63;;
7375;SDS011;3728;42.266;24.944;2024-02-04T02:02:50;4.37;;;3.50;;
7375;SDS011;3728;42.266;24.944;2024-02-04T02:05:19;8.83;;;5.73;;
7375;SDS011;3728;42.266;24.944;2024-02-04T02:07:47;8.03;;;4.67;;
7375;SDS011;3728;42.266;24.944;2024-02-04T02:10:18;9.23;;;4.30;;
7375;SDS011;3728;42.266;24.944;2024-02-04T02:12:52;6.67;;;4.20;;
7375;SDS011;3728;42.266;24.944;2024-02-04T02:15:34;5.87;;;3.77;;
7375;SDS011;3728;42.266;24.944;2024-02-04T02:18:10;4.30;;;3.90;;
7375;SDS011;3728;42.266;24.944;2024-02-04T02:21:04;9.30;;;5.57;;
7375;SDS011;3728;42.266;24.944;2024-02-04T02:23:40;6.20;;;4.27;;
7375;SDS011;3728;42.266;24.944;2024-02-04T02:26:16;6.13;;;4.37;;
7375;SDS011;3728;42.266;24.944;2024-02-04T02:28:45;4.33;;;3.90;;
7375;SDS011;3728;42.266;24.944;2024-02-04T02:31:12;5.77;;;3.97;;
7375;SDS011;3728;42.266;24.944;2024-02-04T02:33:40;5.50;;;3.97;;
7375;SDS011;3728;42.266;24.944;2024-02-04T02:36:16;6.53;;;4.23;;
7375;SDS011;3728;42.266;24.944;2024-02-04T02:41:22;6.67;;;5.53;;
7375;SDS011;3728;42.266;24.944;2024-02-04T02:43:52;8.30;;;7.20;;
7375;SDS011;3728;42.266;24.944;2024-02-04T02:46:21;7.37;;;6.30;;
7375;SDS011;3728;42.266;24.944;2024-02-04T02:48:50;6.77;;;5.33;;
7375;SDS011;3728;42.266;24.944;2024-02-04T02:51:18;11.37;;;6.50;;
7375;SDS011;3728;42.266;24.944;2024-02-04T02:53:45;10.53;;;6.47;;
7375;SDS011;3728;42.266;24.944;2024-02-04T02:56:13;8.07;;;6.00;;
7375;SDS011;3728;42.266;24.944;2024-02-04T02:58:40;6.93;;;5.20;;
7375;SDS011;3728;42.266;24.944;2024-02-04T03:01:08;8.00;;;5.50;;
7375;SDS011;3728;42.266;24.944;2024-02-04T03:03:36;7.33;;;5.03;;
7375;SDS011;3728;42.266;24.944;2024-02-04T03:06:04;9.00;;;5.53;;
7375;SDS011;3728;42.266;24.944;2024-02-04T03:08:32;11.23;;;5.70;;
7375;SDS011;3728;42.266;24.944;2024-02-04T03:10:59;9.13;;;5.23;;
7375;SDS011;3728;42.266;24.944;2024-02-04T03:13:27;7.90;;;5.30;;
7375;SDS011;3728;42.266;24.944;2024-02-04T03:15:54;8.17;;;5.73;;
7375;SDS011;3728;42.266;24.944;2024-02-04T03:18:21;8.70;;;6.30;;
7375;SDS011;3728;42.266;24.944;2024-02-04T03:20:49;8.00;;;5.70;;
7375;SDS011;3728;42.266;24.944;2024-02-04T03:23:16;10.03;;;6.77;;
7375;SDS011;3728;42.266;24.944;2024-02-04T03:25:44;10.77;;;7.67;;
7375;SDS011;3728;42.266;24.944;2024-02-04T03:28:11;14.27;;;8.87;;
7375;SDS011;3728;42.266;24.944;2024-02-04T03:30:39;15.00;;;9.70;;
7375;SDS011;3728;42.266;24.944;2024-02-04T03:33:06;18.07;;;10.87;;
7375;SDS011;3728;42.266;24.944;2024-02-04T03:35:34;18.13;;;10.33;;
7375;SDS011;3728;42.266;24.944;2024-02-04T03:38:04;18.63;;;11.53;;
7375;SDS011;3728;42.266;24.944;2024-02-04T03:40:32;22.27;;;13.97;;
7375;SDS011;3728;42.266;24.944;2024-02-04T03:42:59;22.43;;;15.57;;
7375;SDS011;3728;42.266;24.944;2024-02-04T03:45:28;22.00;;;14.43;;
7375;SDS011;3728;42.266;24.944;2024-02-04T03:47:55;21.27;;;14.37;;
7375;SDS011;3728;42.266;24.944;2024-02-04T03:50:23;19.87;;;14.10;;
7375;SDS011;3728;42.266;24.944;2024-02-04T03:52:50;17.23;;;11.67;;
7375;SDS011;3728;42.266;24.944;2024-02-04T03:55:17;16.30;;;10.17;;
7375;SDS011;3728;42.266;24.944;2024-02-04T03:57:45;19.63;;;11.00;;
7375;SDS011;3728;42.266;24.944;2024-02-04T04:00:13;19.43;;;11.57;;
7375;SDS011;3728;42.266;24.944;2024-02-04T04:02:41;14.73;;;9.50;;
7375;SDS011;3728;42.266;24.944;2024-02-04T04:05:11;17.80;;;10.30;;
7375;SDS011;3728;42.266;24.944;2024-02-04T04:07:40;15.33;;;7.83;;
7375;SDS011;3728;42.266;24.944;2024-02-04T04:10:07;12.37;;;7.77;;
7375;SDS011;3728;42.266;24.944;2024-02-04T04:12:35;19.90;;;13.10;;
7375;SDS011;3728;42.266;24.944;2024-02-04T04:15:03;17.10;;;10.77;;
7375;SDS011;3728;42.266;24.944;2024-02-04T04:17:30;23.40;;;14.53;;
7375;SDS011;3728;42.266;24.944;2024-02-04T04:19:58;21.37;;;13.90;;
7375;SDS011;3728;42.266;24.944;2024-02-04T04:22:25;14.47;;;10.70;;
7375;SDS011;3728;42.266;24.944;2024-02-04T04:24:53;13.83;;;10.97;;
7375;SDS011;3728;42.266;24.944;2024-02-04T04:27:20;15.17;;;11.37;;
7375;SDS011;3728;42.266;24.944;2024-02-04T04:29:48;17.23;;;13.70;;
7375;SDS011;3728;42.266;24.944;2024-02-04T04:32:15;20.17;;;12.27;;
7375;SDS011;3728;42.266;24.944;2024-02-04T04:34:42;14.60;;;7.50;;
7375;SDS011;3728;42.266;24.944;2024-02-04T04:37:10;11.57;;;6.60;;
7375;SDS011;3728;42.266;24.944;2024-02-04T04:39:37;8.43;;;5.70;;
7375;SDS011;3728;42.266;24.944;2024-02-04T04:42:05;7.33;;;5.30;;
7375;SDS011;3728;42.266;24.944;2024-02-04T04:44:35;21.10;;;11.47;;
7375;SDS011;3728;42.266;24.944;2024-02-04T04:47:03;16.73;;;9.17;;
7375;SDS011;3728;42.266;24.944;2024-02-04T04:49:30;12.80;;;8.30;;
7375;SDS011;3728;42.266;24.944;2024-02-04T04:51:58;11.70;;;7.30;;
7375;SDS011;3728;42.266;24.944;2024-02-04T04:54:27;17.03;;;8.03;;
7375;SDS011;3728;42.266;24.944;2024-02-04T04:56:54;16.67;;;8.90;;
7375;SDS011;3728;42.266;24.944;2024-02-04T04:59:22;15.50;;;7.50;;
7375;SDS011;3728;42.266;24.944;2024-02-04T05:01:49;20.70;;;12.07;;
7375;SDS011;3728;42.266;24.944;2024-02-04T05:04:17;16.37;;;10.33;;
7375;SDS011;3728;42.266;24.944;2024-02-04T05:06:51;18.27;;;11.70;;
7375;SDS011;3728;42.266;24.944;2024-02-04T05:09:19;11.30;;;7.87;;
7375;SDS011;3728;42.266;24.944;2024-02-04T05:11:46;9.90;;;5.77;;
7375;SDS011;3728;42.266;24.944;2024-02-04T05:14:14;10.27;;;5.57;;
7375;SDS011;3728;42.266;24.944;2024-02-04T05:16:41;11.77;;;6.00;;
7375;SDS011;3728;42.266;24.944;2024-02-04T05:19:10;12.87;;;7.53;;
7375;SDS011;3728;42.266;24.944;2024-02-04T05:21:39;12.73;;;6.63;;
7375;SDS011;3728;42.266;24.944;2024-02-04T05:24:07;18.70;;;10.13;;
7375;SDS011;3728;42.266;24.944;2024-02-04T05:26:34;12.63;;;8.67;;
7375;SDS011;3728;42.266;24.944;2024-02-04T05:29:02;56.00;;;24.07;;
7375;SDS011;3728;42.266;24.944;2024-02-04T05:31:29;40.33;;;19.23;;
7375;SDS011;3728;42.266;24.944;2024-02-04T05:33:56;32.10;;;13.83;;
7375;SDS011;3728;42.266;24.944;2024-02-04T05:36:24;17.10;;;11.10;;
7375;SDS011;3728;42.266;24.944;2024-02-04T05:38:51;13.40;;;8.47;;
7375;SDS011;3728;42.266;24.944;2024-02-04T05:41:19;32.17;;;15.60;;
7375;SDS011;3728;42.266;24.944;2024-02-04T05:43:46;70.67;;;29.40;;
7375;SDS011;3728;42.266;24.944;2024-02-04T05:46:14;112.63;;;44.83;;
7375;SDS011;3728;42.266;24.944;2024-02-04T05:48:42;55.17;;;25.40;;
7375;SDS011;3728;42.266;24.944;2024-02-04T05:51:11;24.67;;;15.03;;
7375;SDS011;3728;42.266;24.944;2024-02-04T05:53:39;30.17;;;16.73;;
7375;SDS011;3728;42.266;24.944;2024-02-04T05:56:06;47.10;;;23.90;;
7375;SDS011;3728;42.266;24.944;2024-02-04T05:58:35;30.57;;;16.70;;
7375;SDS011;3728;42.266;24.944;2024-02-04T06:01:03;35.27;;;18.83;;
7375;SDS011;3728;42.266;24.944;2024-02-04T06:03:32;54.00;;;28.93;;
7375;SDS011;3728;42.266;24.944;2024-02-04T06:06:00;67.20;;;36.90;;
7375;SDS011;3728;42.266;24.944;2024-02-04T06:08:27;49.70;;;26.73;;
7375;SDS011;3728;42.266;24.944;2024-02-04T06:10:54;53.70;;;28.07;;
7375;SDS011;3728;42.266;24.944;2024-02-04T06:13:22;46.60;;;23.07;;
7375;SDS011;3728;42.266;24.944;2024-02-04T06:15:49;25.17;;;14.83;;
7375;SDS011;3728;42.266;24.944;2024-02-04T06:18:17;31.23;;;17.27;;
7375;SDS011;3728;42.266;24.944;2024-02-04T06:20:44;47.47;;;24.37;;
7375;SDS011;3728;42.266;24.944;2024-02-04T06:23:12;47.20;;;26.50;;
7375;SDS011;3728;42.266;24.944;2024-02-04T06:25:40;64.20;;;36.40;;
7375;SDS011;3728;42.266;24.944;2024-02-04T06:28:07;67.80;;;38.53;;
7375;SDS011;3728;42.266;24.944;2024-02-04T06:30:35;91.30;;;40.80;;
7375;SDS011;3728;42.266;24.944;2024-02-04T06:33:03;92.40;;;39.23;;
7375;SDS011;3728;42.266;24.944;2024-02-04T06:35:31;69.27;;;35.17;;
7375;SDS011;3728;42.266;24.944;2024-02-04T06:37:59;46.00;;;27.13;;
7375;SDS011;3728;42.266;24.944;2024-02-04T06:40:27;48.77;;;29.63;;
7375;SDS011;3728;42.266;24.944;2024-02-04T06:42:55;62.03;;;35.93;;
7375;SDS011;3728;42.266;24.944;2024-02-04T06:45:22;67.53;;;36.33;;
7375;SDS011;3728;42.266;24.944;2024-02-04T06:47:50;73.47;;;39.50;;
7375;SDS011;3728;42.266;24.944;2024-02-04T06:50:17;17.30;;;11.60;;
7375;SDS011;3728;42.266;24.944;2024-02-04T06:52:45;11.80;;;8.30;;
7375;SDS011;3728;42.266;24.944;2024-02-04T06:55:13;13.00;;;6.50;;
7375;SDS011;3728;42.266;24.944;2024-02-04T06:57:40;9.30;;;6.10;;
7375;SDS011;3728;42.266;24.944;2024-02-04T07:00:08;9.27;;;5.70;;
7375;SDS011;3728;42.266;24.944;2024-02-04T07:02:37;18.63;;;10.47;;
7375;SDS011;3728;42.266;24.944;2024-02-04T07:05:05;10.70;;;8.03;;
7375;SDS011;3728;42.266;24.944;2024-02-04T07:07:33;13.50;;;8.87;;
7375;SDS011;3728;42.266;24.944;2024-02-04T07:10:00;13.63;;;8.87;;
7375;SDS011;3728;42.266;24.944;2024-02-04T07:12:28;10.77;;;7.90;;
7375;SDS011;3728;42.266;24.944;2024-02-04T07:14:55;10.83;;;7.13;;
7375;SDS011;3728;42.266;24.944;2024-02-04T07:17:23;7.13;;;5.60;;
7375;SDS011;3728;42.266;24.944;2024-02-04T07:19:51;10.40;;;8.27;;
7375;SDS011;3728;42.266;24.944;2024-02-04T07:22:19;13.17;;;8.60;;
7375;SDS011;3728;42.266;24.944;2024-02-04T07:24:46;7.20;;;4.77;;
7375;SDS011;3728;42.266;24.944;2024-02-04T07:27:14;13.10;;;8.57;;
7375;SDS011;3728;42.266;24.944;2024-02-04T07:29:42;11.80;;;7.80;;
7375;SDS011;3728;42.266;24.944;2024-02-04T07:32:09;14.83;;;9.57;;
7375;SDS011;3728;42.266;24.944;2024-02-04T07:34:37;18.90;;;12.47;;
7375;SDS011;3728;42.266;24.944;2024-02-04T07:37:05;14.47;;;10.03;;
7375;SDS011;3728;42.266;24.944;2024-02-04T07:39:34;14.27;;;8.93;;
7375;SDS011;3728;42.266;24.944;2024-02-04T07:42:02;18.17;;;11.60;;
7375;SDS011;3728;42.266;24.944;2024-02-04T07:44:30;13.73;;;9.37;;
7375;SDS011;3728;42.266;24.944;2024-02-04T07:46:57;10.83;;;6.33;;
7375;SDS011;3728;42.266;24.944;2024-02-04T07:49:25;6.77;;;6.07;;
7375;SDS011;3728;42.266;24.944;2024-02-04T07:51:52;9.23;;;6.97;;
7375;SDS011;3728;42.266;24.944;2024-02-04T07:54:20;11.67;;;6.90;;
7375;SDS011;3728;42.266;24.944;2024-02-04T07:56:48;11.63;;;7.83;;
7375;SDS011;3728;42.266;24.944;2024-02-04T07:59:15;10.77;;;6.67;;
7375;SDS011;3728;42.266;24.944;2024-02-04T08:01:42;11.00;;;7.40;;
7375;SDS011;3728;42.266;24.944;2024-02-04T08:04:10;31.37;;;18.20;;
7375;SDS011;3728;42.266;24.944;2024-02-04T08:06:38;21.97;;;12.30;;
7375;SDS011;3728;42.266;24.944;2024-02-04T08:09:06;33.97;;;18.43;;
7375;SDS011;3728;42.266;24.944;2024-02-04T08:11:33;20.33;;;9.60;;
7375;SDS011;3728;42.266;24.944;2024-02-04T08:14:01;23.13;;;14.37;;
7375;SDS011;3728;42.266;24.944;2024-02-04T08:16:29;47.40;;;25.33;;
7375;SDS011;3728;42.266;24.944;2024-02-04T08:18:56;17.00;;;11.10;;
7375;SDS011;3728;42.266;24.944;2024-02-04T08:21:24;14.77;;;8.40;;
7375;SDS011;3728;42.266;24.944;2024-02-04T08:23:52;33.17;;;14.97;;
7375;SDS011;3728;42.266;24.944;2024-02-04T08:26:19;18.90;;;9.73;;
7375;SDS011;3728;42.266;24.944;2024-02-04T08:28:47;51.13;;;26.53;;
7375;SDS011;3728;42.266;24.944;2024-02-04T08:31:15;13.53;;;6.80;;
7375;SDS011;3728;42.266;24.944;2024-02-04T08:33:43;5.67;;;4.23;;
7375;SDS011;3728;42.266;24.944;2024-02-04T08:36:10;7.27;;;3.73;;
7375;SDS011;3728;42.266;24.944;2024-02-04T08:38:38;7.97;;;5.87;;
7375;SDS011;3728;42.266;24.944;2024-02-04T08:41:06;11.47;;;6.43;;
7375;SDS011;3728;42.266;24.944;2024-02-04T08:43:34;8.63;;;6.33;;
7375;SDS011;3728;42.266;24.944;2024-02-04T08:46:01;8.47;;;4.73;;
7375;SDS011;3728;42.266;24.944;2024-02-04T08:48:39;4.50;;;3.03;;
7375;SDS011;3728;42.266;24.944;2024-02-04T08:51:12;6.90;;;3.10;;
7375;SDS011;3728;42.266;24.944;2024-02-04T08:53:42;4.80;;;3.20;;
7375;SDS011;3728;42.266;24.944;2024-02-04T08:56:10;4.13;;;3.10;;
7375;SDS011;3728;42.266;24.944;2024-02-04T08:58:37;6.13;;;3.17;;
7375;SDS011;3728;42.266;24.944;2024-02-04T09:01:05;5.63;;;2.80;;
7375;SDS011;3728;42.266;24.944;2024-02-04T09:03:34;4.23;;;3.67;;
7375;SDS011;3728;42.266;24.944;2024-02-04T09:06:01;4.73;;;3.13;;
7375;SDS011;3728;42.266;24.944;2024-02-04T09:08:29;7.53;;;4.33;;
7375;SDS011;3728;42.266;24.944;2024-02-04T09:10:59;10.20;;;5.97;;
7375;SDS011;3728;42.266;24.944;2024-02-04T09:13:27;8.07;;;5.20;;
7375;SDS011;3728;42.266;24.944;2024-02-04T09:15:55;14.00;;;7.03;;
7375;SDS011;3728;42.266;24.944;2024-02-04T09:18:23;8.60;;;4.93;;
7375;SDS011;3728;42.266;24.944;2024-02-04T09:20:52;17.93;;;8.90;;
7375;SDS011;3728;42.266;24.944;2024-02-04T09:23:20;10.33;;;4.73;;
7375;SDS011;3728;42.266;24.944;2024-02-04T09:25:47;6.93;;;3.17;;
7375;SDS011;3728;42.266;24.944;2024-02-04T09:28:16;6.73;;;4.40;;
7375;SDS011;3728;42.266;24.944;2024-02-04T09:30:44;8.80;;;3.33;;
7375;SDS011;3728;42.266;24.944;2024-02-04T09:33:14;4.97;;;2.80;;
7375;SDS011;3728;42.266;24.944;2024-02-04T09:35:42;3.03;;;2.50;;
7375;SDS011;3728;42.266;24.944;2024-02-04T09:38:14;2.90;;;2.37;;
7375;SDS011;3728;42.266;24.944;2024-02-04T09:40:43;4.43;;;2.47;;
7375;SDS011;3728;42.266;24.944;2024-02-04T09:43:11;6.10;;;2.13;;
7375;SDS011;3728;42.266;24.944;2024-02-04T09:45:41;4.97;;;2.90;;
7375;SDS011;3728;42.266;24.944;2024-02-04T09:48:11;3.17;;;2.47;;
7375;SDS011;3728;42.266;24.944;2024-02-04T09:50:44;3.30;;;2.80;;
7375;SDS011;3728;42.266;24.944;2024-02-04T09:53:14;4.20;;;2.20;;
7375;SDS011;3728;42.266;24.944;2024-02-04T09:55:49;4.00;;;2.03;;
7375;SDS011;3728;42.266;24.944;2024-02-04T09:58:18;4.10;;;2.17;;
7375;SDS011;3728;42.266;24.944;2024-02-04T10:00:47;2.43;;;2.20;;
7375;SDS011;3728;42.266;24.944;2024-02-04T10:03:16;3.00;;;2.20;;
7375;SDS011;3728;42.266;24.944;2024-02-04T10:05:49;6.53;;;2.10;;
7375;SDS011;3728;42.266;24.944;2024-02-04T10:08:17;4.67;;;2.43;;
7375;SDS011;3728;42.266;24.944;2024-02-04T10:10:47;5.80;;;2.60;;
7375;SDS011;3728;42.266;24.944;2024-02-04T10:13:16;12.27;;;2.30;;
7375;SDS011;3728;42.266;24.944;2024-02-04T10:15:45;3.20;;;2.50;;
7375;SDS011;3728;42.266;24.944;2024-02-04T10:18:13;3.80;;;2.33;;
7375;SDS011;3728;42.266;24.944;2024-02-04T10:20:45;2.17;;;1.87;;
7375;SDS011;3728;42.266;24.944;2024-02-04T10:23:14;5.33;;;2.40;;
7375;SDS011;3728;42.266;24.944;2024-02-04T10:25:42;3.20;;;2.33;;
7375;SDS011;3728;42.266;24.944;2024-02-04T10:28:12;4.27;;;2.20;;
7375;SDS011;3728;42.266;24.944;2024-02-04T10:30:41;5.90;;;3.40;;
7375;SDS011;3728;42.266;24.944;2024-02-04T10:33:10;5.90;;;4.00;;
7375;SDS011;3728;42.266;24.944;2024-02-04T10:35:38;6.70;;;4.80;;
7375;SDS011;3728;42.266;24.944;2024-02-04T10:38:06;9.03;;;4.00;;
7375;SDS011;3728;42.266;24.944;2024-02-04T10:40:37;6.03;;;4.27;;
7375;SDS011;3728;42.266;24.944;2024-02-04T10:43:06;3.20;;;2.33;;
7375;SDS011;3728;42.266;24.944;2024-02-04T10:45:36;5.47;;;2.30;;
7375;SDS011;3728;42.266;24.944;2024-02-04T10:48:09;3.13;;;2.53;;
7375;SDS011;3728;42.266;24.944;2024-02-04T10:50:39;5.70;;;3.57;;
7375;SDS011;3728;42.266;24.944;2024-02-04T10:53:11;4.70;;;1.90;;
7375;SDS011;3728;42.266;24.944;2024-02-04T10:55:46;4.50;;;3.30;;
7375;SDS011;3728;42.266;24.944;2024-02-04T10:58:19;4.73;;;3.20;;
7375;SDS011;3728;42.266;24.944;2024-02-04T11:00:47;2.83;;;2.57;;
7375;SDS011;3728;42.266;24.944;2024-02-04T11:03:15;11.50;;;3.10;;
7375;SDS011;3728;42.266;24.944;2024-02-04T11:06:04;4.60;;;2.70;;
7375;SDS011;3728;42.266;24.944;2024-02-04T11:08:33;4.83;;;2.50;;
7375;SDS011;3728;42.266;24.944;2024-02-04T11:11:02;3.37;;;2.50;;
7375;SDS011;3728;42.266;24.944;2024-02-04T11:13:32;2.93;;;1.97;;
7375;SDS011;3728;42.266;24.944;2024-02-04T11:16:04;2.10;;;1.90;;
7375;SDS011;3728;42.266;24.944;2024-02-04T11:18:49;3.73;;;2.83;;
7375;SDS011;3728;42.266;24.944;2024-02-04T11:27:11;2.40;;;2.20;;
7375;SDS011;3728;42.266;24.944;2024-02-04T11:29:40;7.17;;;2.27;;
7375;SDS011;3728;42.266;24.944;2024-02-04T11:32:08;3.87;;;2.60;;
7375;SDS011;3728;42.266;24.944;2024-02-04T11:34:38;2.93;;;2.27;;
7375;SDS011;3728;42.266;24.944;2024-02-04T11:37:18;5.60;;;1.90;;
7375;SDS011;3728;42.266;24.944;2024-02-04T11:39:50;2.40;;;2.20;;
7375;SDS011;3728;42.266;24.944;2024-02-04T11:42:24;1.67;;;1.50;;
7375;SDS011;3728;42.266;24.944;2024-02-04T11:45:06;3.63;;;2.23;;
7375;SDS011;3728;42.266;24.944;2024-02-04T11:47:34;1.93;;;1.70;;
7375;SDS011;3728;42.266;24.944;2024-02-04T11:50:05;2.90;;;1.97;;
7375;SDS011;3728;42.266;24.944;2024-02-04T11:52:33;5.60;;;2.63;;
7375;SDS011;3728;42.266;24.944;2024-02-04T11:55:01;2.77;;;2.10;;
7375;SDS011;3728;42.266;24.944;2024-02-04T11:57:32;4.53;;;2.57;;
7375;SDS011;3728;42.266;24.944;2024-02-04T12:00:01;2.17;;;1.77;;
7375;SDS011;3728;42.266;24.944;2024-02-04T12:02:32;3.73;;;2.50;;
7375;SDS011;3728;42.266;24.944;2024-02-04T12:05:02;2.43;;;1.60;;
7375;SDS011;3728;42.266;24.944;2024-02-04T12:07:31;1.70;;;1.60;;
7375;SDS011;3728;42.266;24.944;2024-02-04T12:09:59;2.70;;;1.80;;
7375;SDS011;3728;42.266;24.944;2024-02-04T12:12:28;2.40;;;1.57;;
7375;SDS011;3728;42.266;24.944;2024-02-04T12:14:57;1.70;;;1.60;;
7375;SDS011;3728;42.266;24.944;2024-02-04T12:17:27;2.30;;;2.10;;
7375;SDS011;3728;42.266;24.944;2024-02-04T12:19:57;2.37;;;1.47;;
7375;SDS011;3728;42.266;24.944;2024-02-04T12:22:26;2.63;;;1.70;;
7375;SDS011;3728;42.266;24.944;2024-02-04T12:24:55;5.50;;;2.30;;
7375;SDS011;3728;42.266;24.944;2024-02-04T12:27:26;3.37;;;2.30;;
7375;SDS011;3728;42.266;24.944;2024-02-04T12:29:55;3.60;;;1.87;;
7375;SDS011;3728;42.266;24.944;2024-02-04T12:32:27;2.43;;;2.07;;
7375;SDS011;3728;42.266;24.944;2024-02-04T12:34:59;1.67;;;1.40;;
7375;SDS011;3728;42.266;24.944;2024-02-04T12:37:27;5.90;;;1.47;;
7375;SDS011;3728;42.266;24.944;2024-02-04T12:39:55;3.60;;;2.30;;
7375;SDS011;3728;42.266;24.944;2024-02-04T12:43:01;4.70;;;2.00;;
7375;SDS011;3728;42.266;24.944;2024-02-04T12:45:39;4.83;;;2.27;;
7375;SDS011;3728;42.266;24.944;2024-02-04T12:48:09;1.70;;;1.60;;
7375;SDS011;3728;42.266;24.944;2024-02-04T12:50:37;3.53;;;1.10;;
7375;SDS011;3728;42.266;24.944;2024-02-04T12:53:09;5.57;;;1.70;;
7375;SDS011;3728;42.266;24.944;2024-02-04T12:55:43;3.40;;;1.70;;
7375;SDS011;3728;42.266;24.944;2024-02-04T12:58:11;1.47;;;1.00;;
7375;SDS011;3728;42.266;24.944;2024-02-04T13:00:47;4.40;;;0.83;;
7375;SDS011;3728;42.266;24.944;2024-02-04T13:03:15;4.90;;;1.57;;
7375;SDS011;3728;42.266;24.944;2024-02-04T13:05:43;1.37;;;1.00;;
7375;SDS011;3728;42.266;24.944;2024-02-04T13:08:13;1.57;;;1.10;;
7375;SDS011;3728;42.266;24.944;2024-02-04T13:10:53;1.70;;;1.23;;
7375;SDS011;3728;42.266;24.944;2024-02-04T13:13:29;1.37;;;1.27;;
7375;SDS011;3728;42.266;24.944;2024-02-04T13:15:58;2.37;;;1.00;;
7375;SDS011;3728;42.266;24.944;2024-02-04T13:18:26;1.90;;;1.50;;
7375;SDS011;3728;42.266;24.944;2024-02-04T13:20:54;5.23;;;2.20;;
7375;SDS011;3728;42.266;24.944;2024-02-04T13:23:21;4.67;;;2.37;;
7375;SDS011;3728;42.266;24.944;2024-02-04T13:25:49;1.63;;;1.53;;
7375;SDS011;3728;42.266;24.944;2024-02-04T13:28:16;2.17;;;1.57;;
7375;SDS011;3728;42.266;24.944;2024-02-04T13:30:46;2.83;;;1.97;;
7375;SDS011;3728;42.266;24.944;2024-02-04T13:33:14;4.80;;;2.67;;
7375;SDS011;3728;42.266;24.944;2024-02-04T13:35:42;3.30;;;2.50;;
7375;SDS011;3728;42.266;24.944;2024-02-04T13:38:09;1.80;;;1.43;;
7375;SDS011;3728;42.266;24.944;2024-02-04T13:40:38;2.17;;;1.70;;
7375;SDS011;3728;42.266;24.944;2024-02-04T13:43:06;1.80;;;1.70;;
7375;SDS011;3728;42.266;24.944;2024-02-04T13:45:34;1.90;;;1.70;;
7375;SDS011;3728;42.266;24.944;2024-02-04T13:48:03;1.60;;;1.50;;
7375;SDS011;3728;42.266;24.944;2024-02-04T13:50:33;3.80;;;1.53;;
7375;SDS011;3728;42.266;24.944;2024-02-04T13:53:02;2.43;;;2.10;;
7375;SDS011;3728;42.266;24.944;2024-02-04T13:55:30;3.50;;;2.27;;
7375;SDS011;3728;42.266;24.944;2024-02-04T13:57:57;6.73;;;2.07;;
7375;SDS011;3728;42.266;24.944;2024-02-04T14:00:25;3.33;;;2.30;;
7375;SDS011;3728;42.266;24.944;2024-02-04T14:02:53;4.93;;;2.60;;
7375;SDS011;3728;42.266;24.944;2024-02-04T14:05:21;5.50;;;3.53;;
7375;SDS011;3728;42.266;24.944;2024-02-04T14:07:50;8.13;;;4.70;;
7375;SDS011;3728;42.266;24.944;2024-02-04T14:10:22;12.57;;;7.73;;
7375;SDS011;3728;42.266;24.944;2024-02-04T14:12:50;5.83;;;3.00;;
7375;SDS011;3728;42.266;24.944;2024-02-04T14:15:21;1.70;;;1.37;;
7375;SDS011;3728;42.266;24.944;2024-02-04T14:17:50;1.67;;;1.33;;
7375;SDS011;3728;42.266;24.944;2024-02-04T14:20:23;2.27;;;2.00;;
7375;SDS011;3728;42.266;24.944;2024-02-04T14:22:50;2.17;;;1.17;;
7375;SDS011;3728;42.266;24.944;2024-02-04T14:25:18;2.83;;;1.87;;
7375;SDS011;3728;42.266;24.944;2024-02-04T14:27:48;4.80;;;3.00;;
7375;SDS011;3728;42.266;24.944;2024-02-04T14:30:17;2.50;;;1.90;;
7375;SDS011;3728;42.266;24.944;2024-02-04T14:32:48;3.23;;;2.30;;
7375;SDS011;3728;42.266;24.944;2024-02-04T14:35:16;1.70;;;1.57;;
7375;SDS011;3728;42.266;24.944;2024-02-04T14:37:44;2.47;;;1.70;;
7375;SDS011;3728;42.266;24.944;2024-02-04T14:40:13;3.47;;;1.73;;
7375;SDS011;3728;42.266;24.944;2024-02-04T14:42:43;1.83;;;1.47;;
7375;SDS011;3728;42.266;24.944;2024-02-04T14:45:12;3.80;;;2.17;;
7375;SDS011;3728;42.266;24.944;2024-02-04T14:47:45;4.40;;;1.90;;
7375;SDS011;3728;42.266;24.944;2024-02-04T14:50:14;6.70;;;3.73;;
7375;SDS011;3728;42.266;24.944;2024-02-04T14:52:55;4.53;;;2.83;;
7375;SDS011;3728;42.266;24.944;2024-02-04T14:55:24;4.67;;;1.97;;
7375;SDS011;3728;42.266;24.944;2024-02-04T14:57:55;3.27;;;2.33;;
7375;SDS011;3728;42.266;24.944;2024-02-04T15:00:23;6.23;;;5.00;;
7375;SDS011;3728;42.266;24.944;2024-02-04T15:02:54;4.77;;;2.90;;
7375;SDS011;3728;42.266;24.944;2024-02-04T15:05:27;5.47;;;2.97;;
7375;SDS011;3728;42.266;24.944;2024-02-04T15:07:58;4.30;;;1.80;;
7375;SDS011;3728;42.266;24.944;2024-02-04T15:10:27;4.93;;;2.50;;
7375;SDS011;3728;42.266;24.944;2024-02-04T15:12:58;1.87;;;1.53;;